sensor_id;sensor_type;location;lat;lon;timestamp;pressure;altitude;pressure_sealevel;temperature;humidity
79465;BME280;68932;47.410;8.232;2023-06-22T00:00:06;96712.48;;;21.75;68.14
79465;BME280;68932;47.410;8.232;2023-06-22T00:02:34;96713.52;;;21.74;68.31
79465;BME280;68932;47.410;8.232;2023-06-22T00:05:03;96710.27;;;21.74;68.25
79465;BME280;68932;47.410;8.232;2023-06-22T00:07:31;96718.78;;;21.73;68.18
79465;BME280;68932;47.410;8.232;2023-06-22T00:09:59;96721.66;;;21.73;68.15
79465;BME280;68932;47.410;8.232;2023-06-22T00:12:28;96723.13;;;21.73;68.23
79465;BME280;68932;47.410;8.232;2023-06-22T00:14:56;96724.98;;;21.72;68.26
79465;BME280;68932;47.410;8.232;2023-06-22T00:17:24;96722.17;;;21.72;68.13
79465;BME280;68932;47.410;8.232;2023-06-22T00:19:52;96726.71;;;21.71;68.10
79465;BME280;68932;47.410;8.232;2023-06-22T00:22:21;96728.45;;;21.71;68.11
79465;BME280;68932;47.410;8.232;2023-06-22T00:24:49;96725.52;;;21.71;67.98
79465;BME280;68932;47.410;8.232;2023-06-22T00:27:18;96729.20;;;21.68;68.01
79465;BME280;68932;47.410;8.232;2023-06-22T00:29:46;96731.44;;;21.66;68.01
79465;BME280;68932;47.410;8.232;2023-06-22T00:32:15;96730.05;;;21.62;68.01
79465;BME280;68932;47.410;8.232;2023-06-22T00:34:43;96731.82;;;21.60;68.16
79465;BME280;68932;47.410;8.232;2023-06-22T00:37:11;96728.23;;;21.57;68.22
79465;BME280;68932;47.410;8.232;2023-06-22T00:39:39;96722.52;;;21.53;68.18
79465;BME280;68932;47.410;8.232;2023-06-22T00:42:08;96729.48;;;21.50;68.24
79465;BME280;68932;47.410;8.232;2023-06-22T00:44:36;96737.13;;;21.48;68.27
79465;BME280;68932;47.410;8.232;2023-06-22T00:47:06;96741.67;;;21.46;68.38
79465;BME280;68932;47.410;8.232;2023-06-22T00:49:34;96743.13;;;21.44;68.27
79465;BME280;68932;47.410;8.232;2023-06-22T00:52:03;96743.49;;;21.43;68.09
79465;BME280;68932;47.410;8.232;2023-06-22T00:54:32;96740.28;;;21.43;67.92
79465;BME280;68932;47.410;8.232;2023-06-22T00:57:00;96746.42;;;21.42;68.05
79465;BME280;68932;47.410;8.232;2023-06-22T00:59:29;96743.52;;;21.41;68.11
79465;BME280;68932;47.410;8.232;2023-06-22T01:01:57;96748.82;;;21.38;68.07
79465;BME280;68932;47.410;8.232;2023-06-22T01:04:35;96752.61;;;21.34;68.23
79465;BME280;68932;47.410;8.232;2023-06-22T01:07:09;96754.80;;;21.31;68.39
79465;BME280;68932;47.410;8.232;2023-06-22T01:09:44;96755.98;;;21.27;68.20
79465;BME280;68932;47.410;8.232;2023-06-22T01:12:17;96758.00;;;21.23;68.00
79465;BME280;68932;47.410;8.232;2023-06-22T01:14:49;96762.21;;;21.22;68.10
79465;BME280;68932;47.410;8.232;2023-06-22T01:17:20;96771.88;;;21.22;68.02
79465;BME280;68932;47.410;8.232;2023-06-22T01:19:51;96768.84;;;21.20;68.17
79465;BME280;68932;47.410;8.232;2023-06-22T01:22:30;96770.05;;;21.19;68.29
79465;BME280;68932;47.410;8.232;2023-06-22T01:25:09;96770.86;;;21.17;68.30
79465;BME280;68932;47.410;8.232;2023-06-22T01:27:46;96759.02;;;21.14;68.38
79465;BME280;68932;47.410;8.232;2023-06-22T01:30:18;96754.27;;;21.12;68.46
79465;BME280;68932;47.410;8.232;2023-06-22T01:32:47;96755.02;;;21.08;68.48
79465;BME280;68932;47.410;8.232;2023-06-22T01:35:16;96751.80;;;21.07;68.57
79465;BME280;68932;47.410;8.232;2023-06-22T01:37:47;96749.95;;;21.04;68.59
79465;BME280;68932;47.410;8.232;2023-06-22T01:40:16;96750.73;;;21.01;68.77
79465;BME280;68932;47.410;8.232;2023-06-22T01:42:46;96745.69;;;20.98;68.84
79465;BME280;68932;47.410;8.232;2023-06-22T01:45:16;96748.14;;;20.95;69.00
79465;BME280;68932;47.410;8.232;2023-06-22T01:47:45;96746.98;;;20.91;68.91
79465;BME280;68932;47.410;8.232;2023-06-22T01:50:14;96741.63;;;20.88;69.02
79465;BME280;68932;47.410;8.232;2023-06-22T01:52:42;96745.77;;;20.85;69.21
79465;BME280;68932;47.410;8.232;2023-06-22T01:55:11;96752.65;;;20.82;69.30
79465;BME280;68932;47.410;8.232;2023-06-22T01:57:40;96753.59;;;20.80;69.20
79465;BME280;68932;47.410;8.232;2023-06-22T02:00:14;96754.10;;;20.79;69.15
79465;BME280;68932;47.410;8.232;2023-06-22T02:02:48;96755.27;;;20.79;69.26
79465;BME280;68932;47.410;8.232;2023-06-22T02:05:20;96757.11;;;20.79;69.29
79465;BME280;68932;47.410;8.232;2023-06-22T02:07:56;96754.04;;;20.76;69.46
79465;BME280;68932;47.410;8.232;2023-06-22T02:10:29;96755.84;;;20.72;69.56
79465;BME280;68932;47.410;8.232;2023-06-22T02:13:00;96758.09;;;20.71;69.62
79465;BME280;68932;47.410;8.232;2023-06-22T02:15:29;96758.52;;;20.70;69.77
79465;BME280;68932;47.410;8.232;2023-06-22T02:17:58;96761.04;;;20.67;69.80
79465;BME280;68932;47.410;8.232;2023-06-22T02:20:26;96754.83;;;20.62;69.84
79465;BME280;68932;47.410;8.232;2023-06-22T02:22:55;96752.17;;;20.58;69.84
79465;BME280;68932;47.410;8.232;2023-06-22T02:25:24;96752.77;;;20.58;69.96
79465;BME280;68932;47.410;8.232;2023-06-22T02:27:52;96749.05;;;20.58;70.13
79465;BME280;68932;47.410;8.232;2023-06-22T02:30:21;96745.14;;;20.54;70.15
79465;BME280;68932;47.410;8.232;2023-06-22T02:32:49;96742.70;;;20.51;70.35
79465;BME280;68932;47.410;8.232;2023-06-22T02:35:18;96739.55;;;20.47;70.41
79465;BME280;68932;47.410;8.232;2023-06-22T02:37:46;96737.56;;;20.44;70.41
79465;BME280;68932;47.410;8.232;2023-06-22T02:40:14;96734.39;;;20.42;70.49
79465;BME280;68932;47.410;8.232;2023-06-22T02:42:43;96739.34;;;20.41;70.51
79465;BME280;68932;47.410;8.232;2023-06-22T02:45:11;96743.67;;;20.40;70.54
79465;BME280;68932;47.410;8.232;2023-06-22T02:47:40;96740.53;;;20.40;70.64
79465;BME280;68932;47.410;8.232;2023-06-22T02:50:10;96736.77;;;20.38;70.81
79465;BME280;68932;47.410;8.232;2023-06-22T02:52:38;96737.23;;;20.35;70.91
79465;BME280;68932;47.410;8.232;2023-06-22T02:55:08;96735.67;;;20.37;71.12
79465;BME280;68932;47.410;8.232;2023-06-22T02:57:36;96734.46;;;20.38;71.04
79465;BME280;68932;47.410;8.232;2023-06-22T03:00:07;96737.23;;;20.39;71.10
79465;BME280;68932;47.410;8.232;2023-06-22T03:02:36;96740.13;;;20.38;71.17
79465;BME280;68932;47.410;8.232;2023-06-22T03:05:05;96731.96;;;20.37;71.21
79465;BME280;68932;47.410;8.232;2023-06-22T03:07:33;96730.52;;;20.35;71.32
79465;BME280;68932;47.410;8.232;2023-06-22T03:10:01;96727.60;;;20.32;71.39
79465;BME280;68932;47.410;8.232;2023-06-22T03:12:30;96717.60;;;20.29;71.32
79465;BME280;68932;47.410;8.232;2023-06-22T03:14:58;96721.27;;;20.25;71.38
79465;BME280;68932;47.410;8.232;2023-06-22T03:17:27;96720.88;;;20.25;71.49
79465;BME280;68932;47.410;8.232;2023-06-22T03:19:55;96716.56;;;20.24;71.68
79465;BME280;68932;47.410;8.232;2023-06-22T03:22:23;96721.93;;;20.22;71.79
79465;BME280;68932;47.410;8.232;2023-06-22T03:24:51;96718.94;;;20.22;71.79
79465;BME280;68932;47.410;8.232;2023-06-22T03:27:19;96723.03;;;20.22;71.78
79465;BME280;68932;47.410;8.232;2023-06-22T03:29:48;96729.08;;;20.24;71.75
79465;BME280;68932;47.410;8.232;2023-06-22T03:32:16;96725.48;;;20.24;71.94
79465;BME280;68932;47.410;8.232;2023-06-22T03:34:44;96726.44;;;20.23;71.89
79465;BME280;68932;47.410;8.232;2023-06-22T03:37:12;96722.90;;;20.22;71.95
79465;BME280;68932;47.410;8.232;2023-06-22T03:39:41;96719.92;;;20.21;71.80
79465;BME280;68932;47.410;8.232;2023-06-22T03:42:09;96719.96;;;20.19;71.82
79465;BME280;68932;47.410;8.232;2023-06-22T03:44:38;96716.52;;;20.20;71.82
79465;BME280;68932;47.410;8.232;2023-06-22T03:47:07;96712.05;;;20.20;71.88
79465;BME280;68932;47.410;8.232;2023-06-22T03:49:36;96712.72;;;20.19;72.16
79465;BME280;68932;47.410;8.232;2023-06-22T03:52:05;96707.04;;;20.19;72.35
79465;BME280;68932;47.410;8.232;2023-06-22T03:54:34;96709.08;;;20.18;72.39
79465;BME280;68932;47.410;8.232;2023-06-22T03:57:02;96711.48;;;20.17;72.55
79465;BME280;68932;47.410;8.232;2023-06-22T03:59:31;96707.97;;;20.20;72.59
79465;BME280;68932;47.410;8.232;2023-06-22T04:01:59;96704.98;;;20.23;72.53
79465;BME280;68932;47.410;8.232;2023-06-22T04:04:28;96702.71;;;20.22;72.73
79465;BME280;68932;47.410;8.232;2023-06-22T04:06:56;96703.18;;;20.21;72.78
79465;BME280;68932;47.410;8.232;2023-06-22T04:09:25;96703.23;;;20.22;72.86
79465;BME280;68932;47.410;8.232;2023-06-22T04:11:53;96707.02;;;20.24;72.92
79465;BME280;68932;47.410;8.232;2023-06-22T04:14:21;96701.58;;;20.24;73.01
79465;BME280;68932;47.410;8.232;2023-06-22T04:16:49;96696.61;;;20.28;72.97
79465;BME280;68932;47.410;8.232;2023-06-22T04:19:18;96698.83;;;20.32;73.05
79465;BME280;68932;47.410;8.232;2023-06-22T04:21:46;96706.33;;;20.35;73.05
79465;BME280;68932;47.410;8.232;2023-06-22T04:24:14;96700.02;;;20.41;73.01
79465;BME280;68932;47.410;8.232;2023-06-22T04:26:43;96687.25;;;20.47;73.03
79465;BME280;68932;47.410;8.232;2023-06-22T04:29:11;96685.55;;;20.52;73.01
79465;BME280;68932;47.410;8.232;2023-06-22T04:31:39;96691.48;;;20.57;73.06
79465;BME280;68932;47.410;8.232;2023-06-22T04:34:08;96691.61;;;20.63;72.99
79465;BME280;68932;47.410;8.232;2023-06-22T04:36:38;96684.95;;;20.70;73.02
79465;BME280;68932;47.410;8.232;2023-06-22T04:39:08;96696.91;;;20.77;72.98
79465;BME280;68932;47.410;8.232;2023-06-22T04:41:38;96702.79;;;20.80;72.94
79465;BME280;68932;47.410;8.232;2023-06-22T04:44:07;96699.27;;;20.86;72.92
79465;BME280;68932;47.410;8.232;2023-06-22T04:46:35;96687.80;;;20.93;72.89
79465;BME280;68932;47.410;8.232;2023-06-22T04:49:04;96695.98;;;21.00;72.56
79465;BME280;68932;47.410;8.232;2023-06-22T04:51:32;96702.64;;;21.05;72.60
79465;BME280;68932;47.410;8.232;2023-06-22T04:54:00;96700.45;;;21.09;72.50
79465;BME280;68932;47.410;8.232;2023-06-22T04:56:29;96698.88;;;21.15;72.32
79465;BME280;68932;47.410;8.232;2023-06-22T04:58:57;96700.63;;;21.20;72.13
79465;BME280;68932;47.410;8.232;2023-06-22T05:01:26;96704.09;;;21.24;72.06
79465;BME280;68932;47.410;8.232;2023-06-22T05:03:54;96698.35;;;21.29;71.94
79465;BME280;68932;47.410;8.232;2023-06-22T05:06:23;96693.23;;;21.32;72.00
79465;BME280;68932;47.410;8.232;2023-06-22T05:08:52;96695.36;;;21.38;71.89
79465;BME280;68932;47.410;8.232;2023-06-22T05:11:20;96696.71;;;21.45;71.73
79465;BME280;68932;47.410;8.232;2023-06-22T05:13:48;96696.38;;;21.52;71.69
79465;BME280;68932;47.410;8.232;2023-06-22T05:16:17;96691.70;;;21.62;71.39
79465;BME280;68932;47.410;8.232;2023-06-22T05:18:45;96694.89;;;21.70;71.12
79465;BME280;68932;47.410;8.232;2023-06-22T05:21:13;96696.22;;;21.76;71.01
79465;BME280;68932;47.410;8.232;2023-06-22T05:23:41;96691.99;;;21.83;70.80
79465;BME280;68932;47.410;8.232;2023-06-22T05:26:10;96692.30;;;21.91;70.89
79465;BME280;68932;47.410;8.232;2023-06-22T05:28:38;96686.60;;;22.00;70.64
79465;BME280;68932;47.410;8.232;2023-06-22T05:31:06;96687.86;;;22.09;70.41
79465;BME280;68932;47.410;8.232;2023-06-22T05:33:34;96684.02;;;22.19;70.43
79465;BME280;68932;47.410;8.232;2023-06-22T05:36:03;96687.17;;;22.30;70.27
79465;BME280;68932;47.410;8.232;2023-06-22T05:38:31;96686.45;;;22.43;70.04
79465;BME280;68932;47.410;8.232;2023-06-22T05:41:00;96681.81;;;22.52;69.64
79465;BME280;68932;47.410;8.232;2023-06-22T05:43:28;96686.58;;;22.57;69.15
79465;BME280;68932;47.410;8.232;2023-06-22T05:45:56;96688.73;;;22.62;69.13
79465;BME280;68932;47.410;8.232;2023-06-22T05:48:25;96687.77;;;22.64;68.76
79465;BME280;68932;47.410;8.232;2023-06-22T05:50:54;96691.92;;;22.70;68.63
79465;BME280;68932;47.410;8.232;2023-06-22T05:53:23;96697.95;;;22.73;68.30
79465;BME280;68932;47.410;8.232;2023-06-22T05:55:51;96699.40;;;22.79;68.21
79465;BME280;68932;47.410;8.232;2023-06-22T05:58:19;96700.02;;;22.86;68.34
79465;BME280;68932;47.410;8.232;2023-06-22T06:00:48;96710.89;;;22.96;68.25
79465;BME280;68932;47.410;8.232;2023-06-22T06:03:16;96713.75;;;23.07;67.83
79465;BME280;68932;47.410;8.232;2023-06-22T06:05:45;96708.02;;;23.18;67.46
79465;BME280;68932;47.410;8.232;2023-06-22T06:08:13;96704.76;;;23.30;67.49
79465;BME280;68932;47.410;8.232;2023-06-22T06:10:42;96706.13;;;23.38;66.81
79465;BME280;68932;47.410;8.232;2023-06-22T06:13:10;96711.02;;;23.43;66.88
79465;BME280;68932;47.410;8.232;2023-06-22T06:15:38;96709.34;;;23.50;66.55
79465;BME280;68932;47.410;8.232;2023-06-22T06:18:06;96701.84;;;23.57;66.04
79465;BME280;68932;47.410;8.232;2023-06-22T06:20:35;96706.90;;;23.58;65.63
79465;BME280;68932;47.410;8.232;2023-06-22T06:23:03;96709.55;;;23.57;65.37
79465;BME280;68932;47.410;8.232;2023-06-22T06:25:31;96705.76;;;23.57;65.55
79465;BME280;68932;47.410;8.232;2023-06-22T06:27:59;96710.39;;;23.57;65.34
79465;BME280;68932;47.410;8.232;2023-06-22T06:30:28;96712.94;;;23.64;65.75
79465;BME280;68932;47.410;8.232;2023-06-22T06:32:56;96711.39;;;23.72;65.29
79465;BME280;68932;47.410;8.232;2023-06-22T06:35:25;96716.54;;;23.75;64.88
79465;BME280;68932;47.410;8.232;2023-06-22T06:37:53;96723.91;;;23.79;64.95
79465;BME280;68932;47.410;8.232;2023-06-22T06:40:21;96719.32;;;23.89;64.79
79465;BME280;68932;47.410;8.232;2023-06-22T06:42:50;96718.85;;;24.02;65.01
79465;BME280;68932;47.410;8.232;2023-06-22T06:45:19;96719.14;;;24.15;64.58
79465;BME280;68932;47.410;8.232;2023-06-22T06:47:48;96723.61;;;24.30;64.46
79465;BME280;68932;47.410;8.232;2023-06-22T06:50:17;96723.56;;;24.47;64.17
79465;BME280;68932;47.410;8.232;2023-06-22T06:52:46;96734.49;;;24.64;64.01
79465;BME280;68932;47.410;8.232;2023-06-22T06:55:14;96744.37;;;24.72;63.37
79465;BME280;68932;47.410;8.232;2023-06-22T06:57:43;96754.00;;;24.71;62.90
79465;BME280;68932;47.410;8.232;2023-06-22T07:00:13;96749.14;;;24.64;62.82
79465;BME280;68932;47.410;8.232;2023-06-22T07:02:43;96758.02;;;24.56;63.01
79465;BME280;68932;47.410;8.232;2023-06-22T07:05:12;96782.40;;;24.51;63.18
79465;BME280;68932;47.410;8.232;2023-06-22T07:07:40;96821.35;;;24.44;63.36
79465;BME280;68932;47.410;8.232;2023-06-22T07:10:10;96876.77;;;24.30;63.79
79465;BME280;68932;47.410;8.232;2023-06-22T07:12:38;96917.31;;;24.13;63.99
79465;BME280;68932;47.410;8.232;2023-06-22T07:15:09;96912.83;;;23.90;64.45
79465;BME280;68932;47.410;8.232;2023-06-22T07:17:38;96903.71;;;23.72;64.83
79465;BME280;68932;47.410;8.232;2023-06-22T07:20:08;96903.93;;;23.56;65.09
79465;BME280;68932;47.410;8.232;2023-06-22T07:22:37;96906.36;;;23.46;65.47
79465;BME280;68932;47.410;8.232;2023-06-22T07:25:07;96902.84;;;23.40;65.68
79465;BME280;68932;47.410;8.232;2023-06-22T07:27:36;96890.30;;;23.32;65.78
79465;BME280;68932;47.410;8.232;2023-06-22T07:30:07;96867.09;;;23.27;65.96
79465;BME280;68932;47.410;8.232;2023-06-22T07:32:36;96886.15;;;23.25;66.29
79465;BME280;68932;47.410;8.232;2023-06-22T07:35:06;96890.30;;;23.26;66.45
79465;BME280;68932;47.410;8.232;2023-06-22T07:37:34;96892.92;;;23.28;66.40
79465;BME280;68932;47.410;8.232;2023-06-22T07:40:03;96893.80;;;23.30;66.50
79465;BME280;68932;47.410;8.232;2023-06-22T07:42:32;96880.44;;;23.32;66.53
79465;BME280;68932;47.410;8.232;2023-06-22T07:45:00;96873.06;;;23.41;66.49
79465;BME280;68932;47.410;8.232;2023-06-22T07:47:28;96862.73;;;23.55;66.42
79465;BME280;68932;47.410;8.232;2023-06-22T07:49:57;96839.80;;;23.70;66.02
79465;BME280;68932;47.410;8.232;2023-06-22T07:52:26;96843.80;;;23.84;65.52
79465;BME280;68932;47.410;8.232;2023-06-22T07:54:55;96834.15;;;23.99;65.36
79465;BME280;68932;47.410;8.232;2023-06-22T07:57:23;96812.87;;;24.14;65.08
79465;BME280;68932;47.410;8.232;2023-06-22T07:59:51;96803.35;;;24.30;64.39
79465;BME280;68932;47.410;8.232;2023-06-22T08:02:19;96801.23;;;24.42;64.13
79465;BME280;68932;47.410;8.232;2023-06-22T08:04:48;96805.77;;;24.48;64.18
79465;BME280;68932;47.410;8.232;2023-06-22T08:07:16;96815.56;;;24.54;64.22
79465;BME280;68932;47.410;8.232;2023-06-22T08:09:47;96807.44;;;24.52;63.44
79465;BME280;68932;47.410;8.232;2023-06-22T08:12:16;96804.84;;;24.52;63.35
79465;BME280;68932;47.410;8.232;2023-06-22T08:14:44;96809.70;;;24.55;63.49
79465;BME280;68932;47.410;8.232;2023-06-22T08:17:13;96808.04;;;24.60;63.64
79465;BME280;68932;47.410;8.232;2023-06-22T08:19:42;96808.83;;;24.68;63.87
79465;BME280;68932;47.410;8.232;2023-06-22T08:22:10;96808.31;;;24.78;63.79
79465;BME280;68932;47.410;8.232;2023-06-22T08:24:39;96803.27;;;24.90;64.13
79465;BME280;68932;47.410;8.232;2023-06-22T08:27:09;96796.20;;;24.96;63.60
79465;BME280;68932;47.410;8.232;2023-06-22T08:29:38;96791.57;;;24.96;62.73
79465;BME280;68932;47.410;8.232;2023-06-22T08:32:07;96795.55;;;24.91;62.80
79465;BME280;68932;47.410;8.232;2023-06-22T08:34:36;96803.56;;;24.90;63.09
79465;BME280;68932;47.410;8.232;2023-06-22T08:37:05;96806.83;;;24.94;62.71
79465;BME280;68932;47.410;8.232;2023-06-22T08:39:33;96809.68;;;25.00;62.71
79465;BME280;68932;47.410;8.232;2023-06-22T08:42:02;96809.14;;;25.07;62.73
79465;BME280;68932;47.410;8.232;2023-06-22T08:44:30;96799.30;;;25.15;62.89
79465;BME280;68932;47.410;8.232;2023-06-22T08:46:58;96790.42;;;25.22;62.41
79465;BME280;68932;47.410;8.232;2023-06-22T08:49:27;96790.39;;;25.27;62.27
79465;BME280;68932;47.410;8.232;2023-06-22T08:51:55;96792.13;;;25.36;61.89
79465;BME280;68932;47.410;8.232;2023-06-22T08:54:23;96786.31;;;25.42;61.77
79465;BME280;68932;47.410;8.232;2023-06-22T08:56:52;96782.95;;;25.47;62.14
79465;BME280;68932;47.410;8.232;2023-06-22T08:59:20;96769.85;;;25.52;61.96
79465;BME280;68932;47.410;8.232;2023-06-22T09:01:48;96771.89;;;25.55;62.14
79465;BME280;68932;47.410;8.232;2023-06-22T09:04:16;96773.40;;;25.60;62.16
79465;BME280;68932;47.410;8.232;2023-06-22T09:06:45;96770.19;;;25.66;62.26
79465;BME280;68932;47.410;8.232;2023-06-22T09:09:13;96765.52;;;25.71;62.57
79465;BME280;68932;47.410;8.232;2023-06-22T09:11:41;96759.48;;;25.80;62.32
79465;BME280;68932;47.410;8.232;2023-06-22T09:14:10;96751.55;;;25.91;61.91
79465;BME280;68932;47.410;8.232;2023-06-22T09:16:38;96750.77;;;26.06;61.69
79465;BME280;68932;47.410;8.232;2023-06-22T09:19:07;96754.98;;;26.18;60.89
79465;BME280;68932;47.410;8.232;2023-06-22T09:21:35;96755.98;;;26.25;60.65
79465;BME280;68932;47.410;8.232;2023-06-22T09:24:04;96751.81;;;26.37;61.18
79465;BME280;68932;47.410;8.232;2023-06-22T09:26:33;96753.59;;;26.46;60.87
79465;BME280;68932;47.410;8.232;2023-06-22T09:29:01;96749.09;;;26.53;60.32
79465;BME280;68932;47.410;8.232;2023-06-22T09:31:32;96744.54;;;26.58;60.18
79465;BME280;68932;47.410;8.232;2023-06-22T09:34:01;96735.96;;;26.60;59.62
79465;BME280;68932;47.410;8.232;2023-06-22T09:36:29;96737.95;;;26.60;60.20
79465;BME280;68932;47.410;8.232;2023-06-22T09:38:57;96728.24;;;26.61;60.37
79465;BME280;68932;47.410;8.232;2023-06-22T09:41:26;96720.98;;;26.64;60.19
79465;BME280;68932;47.410;8.232;2023-06-22T09:43:54;96718.44;;;26.71;60.16
79465;BME280;68932;47.410;8.232;2023-06-22T09:46:22;96711.36;;;26.77;59.64
79465;BME280;68932;47.410;8.232;2023-06-22T09:48:51;96699.25;;;26.80;59.31
79465;BME280;68932;47.410;8.232;2023-06-22T09:51:19;96700.48;;;26.89;59.74
79465;BME280;68932;47.410;8.232;2023-06-22T09:53:48;96703.64;;;27.00;59.41
79465;BME280;68932;47.410;8.232;2023-06-22T09:56:16;96705.59;;;27.08;59.33
79465;BME280;68932;47.410;8.232;2023-06-22T09:58:45;96708.38;;;27.15;59.46
79465;BME280;68932;47.410;8.232;2023-06-22T10:01:14;96717.38;;;27.21;59.38
79465;BME280;68932;47.410;8.232;2023-06-22T10:03:43;96725.07;;;27.25;59.52
79465;BME280;68932;47.410;8.232;2023-06-22T10:06:11;96712.67;;;27.29;59.42
79465;BME280;68932;47.410;8.232;2023-06-22T10:08:40;96704.19;;;27.33;59.03
79465;BME280;68932;47.410;8.232;2023-06-22T10:11:08;96694.92;;;27.36;58.63
79465;BME280;68932;47.410;8.232;2023-06-22T10:13:37;96687.88;;;27.43;58.85
79465;BME280;68932;47.410;8.232;2023-06-22T10:16:06;96684.60;;;27.56;58.39
79465;BME280;68932;47.410;8.232;2023-06-22T10:18:34;96679.66;;;27.72;58.37
79465;BME280;68932;47.410;8.232;2023-06-22T10:21:03;96670.02;;;27.93;58.54
79465;BME280;68932;47.410;8.232;2023-06-22T10:23:32;96660.94;;;28.14;57.48
79465;BME280;68932;47.410;8.232;2023-06-22T10:26:00;96663.00;;;28.30;55.72
79465;BME280;68932;47.410;8.232;2023-06-22T10:28:28;96675.62;;;28.39;55.97
79465;BME280;68932;47.410;8.232;2023-06-22T10:30:56;96688.19;;;28.49;55.32
79465;BME280;68932;47.410;8.232;2023-06-22T10:33:25;96692.95;;;28.55;54.67
79465;BME280;68932;47.410;8.232;2023-06-22T10:35:53;96693.50;;;28.61;54.83
79465;BME280;68932;47.410;8.232;2023-06-22T10:38:21;96689.21;;;28.62;54.65
79465;BME280;68932;47.410;8.232;2023-06-22T10:40:49;96693.88;;;28.62;54.47
79465;BME280;68932;47.410;8.232;2023-06-22T10:43:17;96704.40;;;28.61;54.40
79465;BME280;68932;47.410;8.232;2023-06-22T10:45:46;96712.09;;;28.64;54.75
79465;BME280;68932;47.410;8.232;2023-06-22T10:48:15;96726.41;;;28.68;53.83
79465;BME280;68932;47.410;8.232;2023-06-22T10:50:43;96747.23;;;28.66;53.56
79465;BME280;68932;47.410;8.232;2023-06-22T10:53:11;96762.83;;;28.63;53.45
79465;BME280;68932;47.410;8.232;2023-06-22T10:55:39;96773.73;;;28.54;53.32
79465;BME280;68932;47.410;8.232;2023-06-22T10:58:08;96761.28;;;28.43;53.63
79465;BME280;68932;47.410;8.232;2023-06-22T11:00:36;96753.19;;;28.36;54.47
79465;BME280;68932;47.410;8.232;2023-06-22T11:03:04;96752.76;;;28.27;54.39
79465;BME280;68932;47.410;8.232;2023-06-22T11:05:33;96756.13;;;28.07;53.75
79465;BME280;68932;47.410;8.232;2023-06-22T11:08:01;96764.02;;;27.89;54.55
79465;BME280;68932;47.410;8.232;2023-06-22T11:10:29;96753.00;;;27.79;55.24
79465;BME280;68932;47.410;8.232;2023-06-22T11:12:58;96749.39;;;27.73;55.75
79465;BME280;68932;47.410;8.232;2023-06-22T11:15:26;96748.12;;;27.68;55.62
79465;BME280;68932;47.410;8.232;2023-06-22T11:17:54;96729.55;;;27.66;55.75
79465;BME280;68932;47.410;8.232;2023-06-22T11:20:23;96732.63;;;27.67;55.10
79465;BME280;68932;47.410;8.232;2023-06-22T11:22:51;96744.66;;;27.65;55.28
79465;BME280;68932;47.410;8.232;2023-06-22T11:25:19;96743.66;;;27.63;55.41
79465;BME280;68932;47.410;8.232;2023-06-22T11:27:48;96732.31;;;27.63;55.74
79465;BME280;68932;47.410;8.232;2023-06-22T11:30:16;96735.98;;;27.62;55.53
79465;BME280;68932;47.410;8.232;2023-06-22T11:32:44;96744.06;;;27.66;56.89
79465;BME280;68932;47.410;8.232;2023-06-22T11:35:12;96751.58;;;27.75;56.99
79465;BME280;68932;47.410;8.232;2023-06-22T11:37:41;96759.15;;;27.82;55.94
79465;BME280;68932;47.410;8.232;2023-06-22T11:40:11;96745.63;;;27.88;56.70
79465;BME280;68932;47.410;8.232;2023-06-22T11:42:40;96750.45;;;27.97;56.88
79465;BME280;68932;47.410;8.232;2023-06-22T11:45:09;96748.79;;;28.03;57.01
79465;BME280;68932;47.410;8.232;2023-06-22T11:47:37;96749.98;;;28.06;56.64
79465;BME280;68932;47.410;8.232;2023-06-22T11:50:08;96748.11;;;28.07;56.47
79465;BME280;68932;47.410;8.232;2023-06-22T11:52:37;96744.05;;;28.04;55.97
79465;BME280;68932;47.410;8.232;2023-06-22T11:55:07;96743.77;;;28.03;56.12
79465;BME280;68932;47.410;8.232;2023-06-22T11:57:37;96742.80;;;28.02;56.47
79465;BME280;68932;47.410;8.232;2023-06-22T12:00:07;96748.98;;;27.99;56.82
79465;BME280;68932;47.410;8.232;2023-06-22T12:02:36;96747.46;;;27.96;57.65
79465;BME280;68932;47.410;8.232;2023-06-22T12:05:05;96744.17;;;27.91;57.36
79465;BME280;68932;47.410;8.232;2023-06-22T12:07:33;96761.06;;;27.83;56.96
79465;BME280;68932;47.410;8.232;2023-06-22T12:10:02;96763.84;;;27.73;57.09
79465;BME280;68932;47.410;8.232;2023-06-22T12:12:30;96762.23;;;27.64;57.28
79465;BME280;68932;47.410;8.232;2023-06-22T12:14:58;96753.70;;;27.55;56.78
79465;BME280;68932;47.410;8.232;2023-06-22T12:17:27;96737.94;;;27.46;56.91
79465;BME280;68932;47.410;8.232;2023-06-22T12:19:55;96717.58;;;27.42;57.45
79465;BME280;68932;47.410;8.232;2023-06-22T12:22:23;96717.03;;;27.43;57.79
79465;BME280;68932;47.410;8.232;2023-06-22T12:24:51;96730.65;;;27.43;57.82
79465;BME280;68932;47.410;8.232;2023-06-22T12:27:20;96752.84;;;27.40;57.83
79465;BME280;68932;47.410;8.232;2023-06-22T12:29:48;96760.52;;;27.33;57.99
79465;BME280;68932;47.410;8.232;2023-06-22T12:32:16;96774.10;;;27.27;58.56
79465;BME280;68932;47.410;8.232;2023-06-22T12:34:45;96764.48;;;27.23;58.70
79465;BME280;68932;47.410;8.232;2023-06-22T12:37:13;96744.91;;;27.17;58.67
79465;BME280;68932;47.410;8.232;2023-06-22T12:39:43;96731.93;;;27.12;58.70
79465;BME280;68932;47.410;8.232;2023-06-22T12:42:11;96711.36;;;27.07;58.58
79465;BME280;68932;47.410;8.232;2023-06-22T12:44:40;96681.34;;;27.03;58.38
79465;BME280;68932;47.410;8.232;2023-06-22T12:47:09;96660.68;;;27.00;57.72
79465;BME280;68932;47.410;8.232;2023-06-22T12:49:37;96671.48;;;26.97;57.35
79465;BME280;68932;47.410;8.232;2023-06-22T12:52:09;96682.89;;;26.95;56.66
79465;BME280;68932;47.410;8.232;2023-06-22T12:54:38;96680.83;;;26.98;56.35
79465;BME280;68932;47.410;8.232;2023-06-22T12:57:07;96693.70;;;27.07;55.45
79465;BME280;68932;47.410;8.232;2023-06-22T12:59:36;96702.39;;;27.23;55.62
79465;BME280;68932;47.410;8.232;2023-06-22T13:02:05;96706.35;;;27.42;54.54
79465;BME280;68932;47.410;8.232;2023-06-22T13:04:33;96709.99;;;27.55;53.65
79465;BME280;68932;47.410;8.232;2023-06-22T13:07:01;96711.73;;;27.73;53.18